createdAt,value
2018-08-11T00:01:25.752Z,44.80
2018-08-11T00:03:54.293Z,44.43
2018-08-11T00:06:21.895Z,44.30
2018-08-11T00:08:49.518Z,44.39
2018-08-11T00:11:18.995Z,44.73
2018-08-11T00:13:46.646Z,45.33
2018-08-11T00:16:14.487Z,45.12
2018-08-11T00:18:42.663Z,45.54
2018-08-11T00:21:10.248Z,45.11
2018-08-11T00:23:37.891Z,45.23
2018-08-11T00:26:05.768Z,45.51
2018-08-11T00:28:34.231Z,45.60
2018-08-11T00:31:02.831Z,45.66
2018-08-11T00:33:31.656Z,45.72
2018-08-11T00:35:59.890Z,45.37
2018-08-11T00:38:27.454Z,45.40
2018-08-11T00:40:55.078Z,45.68
2018-08-11T00:43:22.975Z,45.25
2018-08-11T00:45:50.603Z,45.06
2018-08-11T00:48:18.186Z,45.56
2018-08-11T00:50:45.807Z,45.31
2018-08-11T00:53:14.503Z,45.19
2018-08-11T00:55:42.115Z,45.26
2018-08-11T00:58:09.723Z,44.87
2018-08-11T01:00:38.362Z,45.23
2018-08-11T01:03:06.626Z,45.21
2018-08-11T01:05:34.853Z,45.37
2018-08-11T01:08:02.891Z,45.80
2018-08-11T01:10:30.738Z,45.71
2018-08-11T01:12:58.385Z,45.36
2018-08-11T01:15:26.015Z,45.62
2018-08-11T01:17:53.961Z,45.38
2018-08-11T01:20:21.628Z,45.65
2018-08-11T01:22:49.707Z,45.81
2018-08-11T01:25:17.448Z,45.84
2018-08-11T01:27:45.493Z,45.36
2018-08-11T01:30:15.079Z,45.73
2018-08-11T01:32:42.804Z,45.71
2018-08-11T01:35:11.167Z,45.08
2018-08-11T01:37:40.543Z,45.86
2018-08-11T01:40:10.225Z,45.54
2018-08-11T01:42:37.855Z,45.59
2018-08-11T01:45:05.753Z,45.31
2018-08-11T01:47:36.468Z,45.59
2018-08-11T01:50:04.098Z,46.28
2018-08-11T01:52:31.711Z,45.14
2018-08-11T01:54:59.979Z,45.22
2018-08-11T01:57:27.607Z,45.31
2018-08-11T01:59:55.284Z,45.73
2018-08-11T02:02:22.935Z,46.51
2018-08-11T02:04:51.062Z,47.21
2018-08-11T02:07:18.691Z,47.75
2018-08-11T02:09:46.290Z,48.61
2018-08-11T02:12:13.946Z,48.79
2018-08-11T02:14:41.876Z,49.26
2018-08-11T02:17:10.538Z,49.54
2018-08-11T02:19:38.226Z,50.02
2018-08-11T02:22:05.779Z,51.25
2018-08-11T02:24:33.922Z,52.22
2018-08-11T02:27:01.551Z,52.46
2018-08-11T02:29:29.207Z,52.79
2018-08-11T02:31:56.840Z,53.20
2018-08-11T02:34:25.268Z,53.48
2018-08-11T02:36:52.948Z,53.71
2018-08-11T02:39:20.595Z,53.73
2018-08-11T02:41:48.229Z,53.56
2018-08-11T02:44:16.238Z,53.93
2018-08-11T02:46:43.858Z,54.07
2018-08-11T02:49:11.445Z,53.86
2018-08-11T02:51:39.040Z,54.13
2018-08-11T02:54:06.967Z,54.92
2018-08-11T02:56:35.057Z,54.68
2018-08-11T02:59:02.984Z,54.94
2018-08-11T03:01:33.944Z,55.29
2018-08-11T03:04:01.779Z,55.96
2018-08-11T03:06:29.544Z,55.32
2018-08-11T03:08:57.658Z,55.81
2018-08-11T03:11:25.290Z,55.58
2018-08-11T03:13:52.945Z,55.48
2018-08-11T03:16:20.575Z,55.84
2018-08-11T03:18:48.504Z,55.56
2018-08-11T03:21:16.300Z,56.05
2018-08-11T03:23:43.969Z,56.36
2018-08-11T03:26:11.595Z,56.32
2018-08-11T03:28:39.525Z,57.53
2018-08-11T03:31:07.159Z,57.74
2018-08-11T03:33:34.854Z,58.14
2018-08-11T03:36:02.834Z,58.04
2018-08-11T03:38:30.444Z,58.35
2018-08-11T03:40:58.054Z,58.63
2018-08-11T03:43:26.866Z,58.57
2018-08-11T03:45:54.519Z,58.90
2018-08-11T03:48:22.179Z,58.50
2018-08-11T03:50:50.074Z,58.52
2018-08-11T03:53:17.685Z,58.54
2018-08-11T03:55:45.289Z,58.54
2018-08-11T03:58:12.856Z,58.27
2018-08-11T04:00:41.669Z,58.08
2018-08-11T04:03:09.319Z,58.61
2018-08-11T04:05:40.570Z,59.02
2018-08-11T04:08:08.224Z,59.81
2018-08-11T04:10:35.846Z,59.45
2018-08-11T04:13:03.470Z,59.62
2018-08-11T04:15:31.062Z,59.98
2018-08-11T04:17:58.946Z,59.89
2018-08-11T04:20:26.549Z,59.82
2018-08-11T04:22:54.193Z,60.09
2018-08-11T04:25:21.837Z,60.73
2018-08-11T04:27:49.714Z,61.01
2018-08-11T04:30:17.347Z,61.33
2018-08-11T04:32:45.720Z,61.67
2018-08-11T04:35:13.359Z,61.28
2018-08-11T04:37:41.587Z,60.74
2018-08-11T04:40:09.211Z,61.52
2018-08-11T04:42:36.801Z,61.65
2018-08-11T04:45:04.412Z,61.23
2018-08-11T04:47:32.333Z,61.14
2018-08-11T04:49:59.932Z,61.00
2018-08-11T04:52:27.534Z,61.05
2018-08-11T04:54:55.195Z,61.20
2018-08-11T04:57:23.086Z,61.61
2018-08-11T04:59:51.334Z,61.19
2018-08-11T05:02:18.944Z,61.82
2018-08-11T05:04:46.840Z,61.95
2018-08-11T05:07:14.446Z,61.48
2018-08-11T05:09:42.478Z,61.67
2018-08-11T05:12:10.158Z,61.87
2018-08-11T05:14:38.059Z,61.28
2018-08-11T05:17:05.679Z,61.67
2018-08-11T05:19:33.287Z,61.64
2018-08-11T05:22:00.912Z,61.49
2018-08-11T05:24:28.999Z,62.11
2018-08-11T05:26:56.608Z,62.59
2018-08-11T05:29:25.154Z,62.02
2018-08-11T05:31:54.414Z,62.34
2018-08-11T05:34:22.003Z,61.86
2018-08-11T05:36:49.599Z,62.34
2018-08-11T05:39:17.226Z,62.11
2018-08-11T05:41:44.897Z,62.32
2018-08-11T05:44:13.552Z,62.23
2018-08-11T05:46:41.191Z,62.17
2018-08-11T05:49:09.366Z,61.94
2018-08-11T05:51:36.971Z,62.12
2018-08-11T05:54:04.885Z,62.14
2018-08-11T05:56:32.496Z,61.41
2018-08-11T05:59:00.139Z,62.06
2018-08-11T06:01:27.747Z,62.32
2018-08-11T06:03:55.706Z,62.61
2018-08-11T06:06:23.494Z,62.61
2018-08-11T06:08:51.167Z,62.49
2018-08-11T06:11:19.088Z,62.71
2018-08-11T06:13:46.792Z,62.55
2018-08-11T06:16:14.407Z,62.16
2018-08-11T06:18:42.299Z,62.19
2018-08-11T06:21:10.000Z,62.46
2018-08-11T06:23:37.582Z,62.36
2018-08-11T06:26:05.497Z,61.76
2018-08-11T06:28:33.242Z,61.60
2018-08-11T06:31:00.877Z,61.59
2018-08-11T06:33:28.730Z,61.12
2018-08-11T06:35:56.414Z,60.34
2018-08-11T06:38:24.089Z,59.86
2018-08-11T06:40:52.023Z,59.50
2018-08-11T06:43:19.886Z,59.85
2018-08-11T06:45:47.477Z,58.87
2018-08-11T06:48:15.615Z,59.61
2018-08-11T06:50:43.236Z,59.78
2018-08-11T06:53:10.850Z,59.48
2018-08-11T06:55:38.841Z,59.75
2018-08-11T06:58:06.796Z,59.34
2018-08-11T07:00:34.402Z,59.20
2018-08-11T07:03:02.295Z,58.95
2018-08-11T07:05:33.347Z,58.94
2018-08-11T07:08:00.972Z,59.37
2018-08-11T07:10:29.658Z,58.94
2018-08-11T07:12:57.295Z,59.57
2018-08-11T07:15:25.372Z,59.45
2018-08-11T07:17:53.030Z,59.71
2018-08-11T07:20:20.658Z,59.15
2018-08-11T07:22:48.659Z,59.41
2018-08-11T07:25:16.912Z,58.90
2018-08-11T07:27:44.501Z,57.67
2018-08-11T07:30:12.479Z,57.45
2018-08-11T07:32:40.776Z,58.12
2018-08-11T07:35:08.390Z,57.81
2018-08-11T07:37:36.526Z,58.05
2018-08-11T07:40:04.190Z,57.10
2018-08-11T07:42:31.882Z,57.24
2018-08-11T07:45:00.411Z,56.25
2018-08-11T07:47:28.059Z,56.54
2018-08-11T07:49:55.662Z,56.21
2018-08-11T07:52:23.558Z,55.21
2018-08-11T07:54:51.163Z,55.55
2018-08-11T07:57:18.786Z,55.64
2018-08-11T07:59:47.894Z,55.86
2018-08-11T08:02:15.514Z,55.91
2018-08-11T08:04:43.102Z,55.58
2018-08-11T08:07:11.766Z,55.31
2018-08-11T08:09:40.784Z,54.71
2018-08-11T08:12:08.399Z,55.32
2018-08-11T08:14:36.296Z,54.39
2018-08-11T08:17:03.961Z,54.13
2018-08-11T08:19:31.566Z,54.25
2018-08-11T08:21:59.518Z,53.18
2018-08-11T08:24:27.167Z,53.59
2018-08-11T08:26:54.893Z,53.54
2018-08-11T08:29:23.393Z,54.07
2018-08-11T08:31:51.885Z,53.07
2018-08-11T08:34:19.502Z,52.65
2018-08-11T08:36:48.457Z,51.86
2018-08-11T08:39:16.079Z,51.56
2018-08-11T08:41:46.549Z,51.17
2018-08-11T08:44:14.484Z,50.23
2018-08-11T08:46:43.267Z,50.98
2018-08-11T08:49:10.890Z,51.58
2018-08-11T08:51:39.622Z,51.68
2018-08-11T08:54:09.170Z,51.80
2018-08-11T08:56:36.801Z,50.54
2018-08-11T08:59:05.586Z,50.68
2018-08-11T09:01:33.499Z,49.67
2018-08-11T09:04:01.154Z,50.09
2018-08-11T09:06:29.648Z,49.15
2018-08-11T09:08:57.227Z,48.68
2018-08-11T09:11:25.445Z,48.68
2018-08-11T09:13:53.872Z,48.09
2018-08-11T09:16:21.518Z,48.14
2018-08-11T09:18:49.091Z,48.87
2018-08-11T09:21:16.981Z,48.12
2018-08-11T09:23:45.546Z,48.05
2018-08-11T09:26:13.178Z,47.85
2018-08-11T09:28:41.502Z,46.92
2018-08-11T09:31:09.933Z,45.69
2018-08-11T09:33:37.800Z,45.12
2018-08-11T09:36:05.736Z,44.63
2018-08-11T09:38:34.284Z,44.37
2018-08-11T09:41:02.580Z,45.16
2018-08-11T09:43:30.490Z,45.05
2018-08-11T09:45:59.764Z,45.68
2018-08-11T09:48:28.778Z,44.69
2018-08-11T09:50:56.719Z,43.04
2018-08-11T09:53:24.371Z,42.57
2018-08-11T09:55:52.875Z,42.27
2018-08-11T09:58:20.758Z,42.18
2018-08-11T10:00:54.223Z,42.75
2018-08-11T10:03:21.833Z,41.57
2018-08-11T10:05:49.722Z,40.63
2018-08-11T10:08:17.380Z,40.02
2018-08-11T10:10:45.035Z,39.22
2018-08-11T10:13:12.953Z,38.05
2018-08-11T10:15:40.624Z,39.40
2018-08-11T10:18:08.959Z,38.64
2018-08-11T10:20:38.576Z,39.60
2018-08-11T10:23:06.228Z,39.45
2018-08-11T10:25:33.860Z,38.90
2018-08-11T10:28:01.848Z,37.47
2018-08-11T10:30:30.183Z,36.67
2018-08-11T10:32:57.762Z,37.75
2018-08-11T10:35:25.682Z,38.15
2018-08-11T10:37:53.311Z,38.82
2018-08-11T10:40:21.002Z,40.06
2018-08-11T10:42:49.848Z,40.39
2018-08-11T10:45:17.477Z,38.90
2018-08-11T10:47:45.116Z,38.22
2018-08-11T10:50:13.994Z,36.03
2018-08-11T10:52:42.165Z,34.82
2018-08-11T10:55:09.871Z,35.00
2018-08-11T10:57:37.839Z,33.53
2018-08-11T11:00:05.591Z,32.41
2018-08-11T11:02:34.225Z,33.91
2018-08-11T11:05:02.290Z,35.06
2018-08-11T11:07:29.937Z,36.52
2018-08-11T11:09:57.595Z,37.58
2018-08-11T11:12:25.510Z,36.32
2018-08-11T11:14:53.122Z,35.56
2018-08-11T11:17:20.836Z,34.18
2018-08-11T11:19:48.958Z,33.00
2018-08-11T11:22:16.576Z,33.16
2018-08-11T11:24:44.755Z,32.35
2018-08-11T11:27:12.690Z,31.26
2018-08-11T11:29:40.300Z,31.36
2018-08-11T11:32:08.470Z,29.88
2018-08-11T11:34:37.064Z,29.56
2018-08-11T11:37:04.779Z,29.54
2018-08-11T11:39:34.331Z,31.17
2018-08-11T11:42:03.075Z,30.85
2018-08-11T11:44:30.652Z,31.07
2018-08-11T11:46:58.280Z,31.50
2018-08-11T11:49:27.309Z,33.58
2018-08-11T11:51:54.936Z,34.70
2018-08-11T11:54:23.451Z,34.31
2018-08-11T11:56:52.118Z,35.17
2018-08-11T11:59:19.746Z,35.49
2018-08-11T12:01:48.180Z,34.87
2018-08-11T12:04:16.176Z,34.89
2018-08-11T12:06:43.826Z,34.81
2018-08-11T12:09:12.627Z,35.31
2018-08-11T12:11:40.425Z,33.59
2018-08-11T12:14:08.130Z,32.25
2018-08-11T12:16:37.441Z,30.93
2018-08-11T12:19:05.146Z,31.34
2018-08-11T12:21:32.777Z,29.62
2018-08-11T12:24:01.913Z,30.21
2018-08-11T12:29:03.842Z,30.85
2018-08-11T12:31:32.329Z,29.64
2018-08-11T12:34:00.049Z,28.82
2018-08-11T12:36:29.885Z,28.68
2018-08-11T12:38:58.281Z,28.00
2018-08-11T12:41:27.116Z,29.66
2018-08-11T12:43:55.079Z,30.96
2018-08-11T12:46:22.694Z,30.19
2018-08-11T12:48:50.327Z,29.91
2018-08-11T12:51:19.109Z,29.51
2018-08-11T12:53:46.778Z,30.24
2018-08-11T12:56:14.402Z,30.20
2018-08-11T12:58:42.427Z,30.17
2018-08-11T13:01:10.692Z,29.79
2018-08-11T13:03:38.322Z,30.04
2018-08-11T13:06:06.467Z,29.66
2018-08-11T13:08:34.481Z,28.39
2018-08-11T13:11:02.167Z,27.95
2018-08-11T13:13:31.492Z,27.36
2018-08-11T13:15:59.107Z,27.85
2018-08-11T13:18:28.306Z,29.16
2018-08-11T13:20:58.250Z,30.39
2018-08-11T13:23:26.977Z,30.83
2018-08-11T13:25:55.122Z,30.64
2018-08-11T13:28:24.423Z,28.91
2018-08-11T13:30:54.925Z,27.86
2018-08-11T13:33:22.606Z,26.65
2018-08-11T13:35:50.768Z,25.83
2018-08-11T13:38:18.526Z,27.02
2018-08-11T13:40:46.286Z,28.14
2018-08-11T13:43:14.260Z,29.63
2018-08-11T13:45:43.043Z,28.89
2018-08-11T13:48:10.715Z,26.98
2018-08-11T13:50:44.583Z,28.25
2018-08-11T13:53:13.360Z,28.92
2018-08-11T13:55:41.972Z,26.69
2018-08-11T13:58:10.310Z,26.43
2018-08-11T14:00:37.914Z,25.42
2018-08-11T14:03:07.195Z,24.85
2018-08-11T14:05:35.725Z,24.40
2018-08-11T14:08:03.455Z,24.89
2018-08-11T14:10:32.646Z,25.99
2018-08-11T14:13:01.336Z,27.47
2018-08-11T14:15:28.967Z,27.72
2018-08-11T14:17:56.554Z,26.70
2018-08-11T14:20:25.995Z,26.28
2018-08-11T14:22:53.679Z,25.24
2018-08-11T14:25:22.141Z,25.05
2018-08-11T14:27:50.317Z,25.26
2018-08-11T14:30:18.027Z,25.70
2018-08-11T14:32:46.529Z,27.83
2018-08-11T14:35:14.642Z,29.37
2018-08-11T14:37:43.107Z,29.07
2018-08-11T14:40:12.230Z,28.44
2018-08-11T14:42:42.367Z,28.46
2018-08-11T14:45:10.454Z,29.25
2018-08-11T14:47:38.441Z,28.84
2018-08-11T14:50:06.828Z,28.55
2018-08-11T14:52:34.479Z,28.08
2018-08-11T14:55:02.491Z,29.12
2018-08-11T14:57:30.122Z,29.83
2018-08-11T14:59:57.873Z,30.46
2018-08-11T15:02:25.867Z,30.50
2018-08-11T15:04:53.518Z,31.00
2018-08-11T15:07:21.666Z,31.85
2018-08-11T15:09:49.715Z,30.52
2018-08-11T15:12:18.277Z,28.16
2018-08-11T15:14:45.878Z,27.61
2018-08-11T15:17:13.915Z,26.85
2018-08-11T15:19:41.585Z,26.65
2018-08-11T15:22:09.228Z,27.26
2018-08-11T15:24:37.339Z,28.01
2018-08-11T15:27:05.491Z,29.14
2018-08-11T15:29:33.282Z,30.18
2018-08-11T15:32:03.943Z,30.50
2018-08-11T15:34:31.550Z,29.55
2018-08-11T15:36:59.222Z,27.99
2018-08-11T15:39:27.414Z,26.40
2018-08-11T15:41:55.798Z,26.04
2018-08-11T15:44:23.431Z,25.23
2018-08-11T15:46:52.359Z,25.42
2018-08-11T15:49:23.692Z,24.47
2018-08-11T15:51:51.992Z,24.92
2018-08-11T15:54:21.526Z,24.40
2018-08-11T15:56:49.179Z,24.67
2018-08-11T15:59:16.807Z,23.69
2018-08-11T16:01:45.587Z,23.70
2018-08-11T16:04:13.254Z,24.26
2018-08-11T16:06:40.907Z,25.90
2018-08-11T16:09:09.670Z,27.78
2018-08-11T16:11:37.459Z,28.21
2018-08-11T16:14:05.115Z,29.03
2018-08-11T16:16:33.149Z,28.15
2018-08-11T16:19:01.613Z,27.45
2018-08-11T16:21:29.570Z,28.81
2018-08-11T16:23:57.590Z,29.22
2018-08-11T16:26:26.000Z,30.68
2018-08-11T16:28:53.668Z,31.40
2018-08-11T16:31:21.774Z,30.90
2018-08-11T16:33:49.330Z,30.29
2018-08-11T16:36:16.925Z,30.59
2018-08-11T16:38:46.258Z,31.38
2018-08-11T16:41:14.836Z,31.57
2018-08-11T16:43:42.448Z,31.25
2018-08-11T16:46:11.400Z,31.56
2018-08-11T16:48:39.048Z,31.39
2018-08-11T16:51:06.725Z,31.52
2018-08-11T16:53:34.608Z,31.99
2018-08-11T16:56:02.967Z,32.35
2018-08-11T16:58:30.611Z,33.01
2018-08-11T17:00:59.167Z,33.13
2018-08-11T17:03:27.396Z,33.50
2018-08-11T17:05:55.126Z,33.10
2018-08-11T17:08:23.072Z,33.85
2018-08-11T17:10:50.718Z,33.39
2018-08-11T17:13:18.345Z,33.91
2018-08-11T17:15:47.292Z,33.53
2018-08-11T17:18:15.043Z,33.96
2018-08-11T17:20:44.165Z,33.95
2018-08-11T17:23:13.776Z,33.49
2018-08-11T17:25:41.450Z,34.47
2018-08-11T17:28:09.834Z,33.52
2018-08-11T17:30:38.392Z,34.19
2018-08-11T17:33:06.043Z,34.25
2018-08-11T17:35:33.725Z,34.30
2018-08-11T17:38:02.785Z,34.63
2018-08-11T17:40:31.129Z,34.81
2018-08-11T17:43:00.063Z,34.41
2018-08-11T17:45:30.803Z,35.09
2018-08-11T17:47:59.811Z,35.04
2018-08-11T17:50:27.566Z,34.49
2018-08-11T17:52:55.492Z,34.62
2018-08-11T17:55:23.275Z,35.29
2018-08-11T17:57:51.596Z,35.48
2018-08-11T18:00:19.562Z,35.09
2018-08-11T18:05:29.275Z,35.07
2018-08-11T18:07:56.923Z,35.56
2018-08-11T18:10:25.188Z,35.02
2018-08-11T18:12:52.914Z,35.30
2018-08-11T18:15:20.586Z,35.40
2018-08-11T18:17:48.516Z,35.62
2018-08-11T18:20:20.287Z,36.21
2018-08-11T18:22:47.937Z,35.71
2018-08-11T18:25:16.451Z,35.65
2018-08-11T18:27:45.502Z,36.88
2018-08-11T18:30:13.295Z,36.62
2018-08-11T18:32:41.193Z,35.87
2018-08-11T18:35:09.158Z,36.85
2018-08-11T18:37:36.844Z,36.20
2018-08-11T18:40:05.901Z,36.84
2018-08-11T18:42:33.596Z,37.17
2018-08-11T18:45:01.801Z,37.17
2018-08-11T18:47:29.742Z,37.39
2018-08-11T18:49:57.406Z,36.59
2018-08-11T18:52:25.063Z,36.68
2018-08-11T18:54:53.965Z,37.23
2018-08-11T18:57:22.243Z,37.06
2018-08-11T18:59:50.610Z,37.08
2018-08-11T19:02:18.583Z,37.93
2018-08-11T19:04:50.588Z,37.33
2018-08-11T19:07:18.200Z,37.49
2018-08-11T19:09:46.319Z,37.35
2018-08-11T19:12:16.689Z,38.05
2018-08-11T19:14:44.337Z,37.86
2018-08-11T19:17:13.234Z,38.55
2018-08-11T19:19:40.910Z,37.81
2018-08-11T19:22:09.896Z,38.59
2018-08-11T19:24:37.915Z,38.89
2018-08-11T19:27:06.348Z,37.91
2018-08-11T19:29:34.682Z,38.81
2018-08-11T19:32:03.059Z,38.72
2018-08-11T19:34:30.709Z,38.25
2018-08-11T19:36:59.083Z,39.15
2018-08-11T19:39:27.864Z,39.29
2018-08-11T19:41:55.583Z,39.07
2018-08-11T19:44:23.223Z,38.80
2018-08-11T19:46:52.189Z,38.63
2018-08-11T19:49:20.800Z,39.21
2018-08-11T19:51:48.472Z,39.29
2018-08-11T19:54:17.843Z,39.22
2018-08-11T19:56:45.530Z,39.41
2018-08-11T19:59:13.186Z,40.21
2018-08-11T20:01:41.183Z,40.61
2018-08-11T20:04:08.855Z,40.99
2018-08-11T20:06:36.490Z,41.51
2018-08-11T20:09:04.546Z,41.88
2018-08-11T20:11:32.178Z,41.19
2018-08-11T20:13:59.894Z,41.47
2018-08-11T20:16:27.879Z,42.02
2018-08-11T20:18:55.620Z,41.92
2018-08-11T20:21:23.325Z,42.46
2018-08-11T20:23:51.393Z,41.98
2018-08-11T20:26:19.066Z,42.20
2018-08-11T20:28:46.677Z,42.16
2018-08-11T20:31:14.624Z,42.06
2018-08-11T20:33:42.518Z,42.34
2018-08-11T20:36:11.309Z,42.40
2018-08-11T20:38:42.088Z,43.13
2018-08-11T20:41:11.323Z,43.27
2018-08-11T20:43:41.777Z,43.35
2018-08-11T20:46:11.830Z,43.26
2018-08-11T20:48:40.239Z,43.06
2018-08-11T20:51:08.452Z,43.14
2018-08-11T20:53:36.330Z,43.63
2018-08-11T20:56:04.196Z,43.76
2018-08-11T20:58:32.512Z,44.07
2018-08-11T21:01:00.474Z,44.16
2018-08-11T21:03:34.911Z,44.33
2018-08-11T21:06:02.571Z,44.13
2018-08-11T21:08:31.474Z,43.99
2018-08-11T21:10:59.686Z,44.11
2018-08-11T21:13:27.825Z,44.57
2018-08-11T21:15:55.795Z,44.36
2018-08-11T21:18:24.436Z,44.56
2018-08-11T21:20:52.779Z,44.33
2018-08-11T21:23:20.708Z,45.04
2018-08-11T21:25:48.361Z,44.50
2018-08-11T21:28:16.029Z,44.89
2018-08-11T21:30:43.936Z,45.21
2018-08-11T21:33:11.526Z,44.98
2018-08-11T21:35:39.142Z,45.23
2018-08-11T21:38:07.719Z,45.21
2018-08-11T21:40:35.301Z,45.64
2018-08-11T21:43:02.931Z,45.16
2018-08-11T21:45:31.422Z,45.82
2018-08-11T21:48:00.137Z,46.05
2018-08-11T21:50:29.598Z,46.18
2018-08-11T21:53:01.032Z,45.85
2018-08-11T21:55:28.904Z,45.85
2018-08-11T21:57:56.490Z,45.90
2018-08-11T22:00:26.895Z,46.35
2018-08-11T22:02:58.695Z,45.68
2018-08-11T22:05:27.098Z,46.31
2018-08-11T22:07:55.051Z,46.49
2018-08-11T22:10:23.591Z,46.22
2018-08-11T22:12:51.558Z,46.54
2018-08-11T22:15:21.083Z,46.25
2018-08-11T22:17:49.356Z,45.89
2018-08-11T22:20:17.348Z,46.64
2018-08-11T22:22:47.589Z,46.18
2018-08-11T22:25:15.434Z,46.34
2018-08-11T22:27:45.200Z,46.32
2018-08-11T22:30:12.907Z,46.86
2018-08-11T22:32:40.507Z,46.49
2018-08-11T22:35:08.643Z,47.11
2018-08-11T22:37:36.267Z,47.08
2018-08-11T22:40:04.860Z,47.15
2018-08-11T22:42:33.379Z,46.87
2018-08-11T22:45:01.034Z,47.14
2018-08-11T22:47:29.515Z,46.48
2018-08-11T22:49:57.731Z,46.56
2018-08-11T22:52:26.481Z,46.85
2018-08-11T22:54:55.683Z,46.96
2018-08-11T22:57:23.887Z,46.78
2018-08-11T22:59:51.534Z,46.57
2018-08-11T23:02:19.378Z,46.55
2018-08-11T23:04:47.383Z,46.96
2018-08-11T23:07:14.991Z,46.53
2018-08-11T23:09:42.579Z,47.04
2018-08-11T23:12:10.184Z,47.05
2018-08-11T23:14:37.769Z,47.51
2018-08-11T23:17:05.419Z,47.73
2018-08-11T23:19:34.558Z,47.76
2018-08-11T23:22:02.476Z,47.66
2018-08-11T23:24:30.701Z,47.47
2018-08-11T23:26:58.336Z,47.88
2018-08-11T23:29:27.877Z,47.59
2018-08-11T23:31:55.543Z,47.67
2018-08-11T23:34:24.567Z,47.12
2018-08-11T23:36:56.378Z,47.22
2018-08-11T23:39:24.264Z,47.94
2018-08-11T23:41:51.898Z,48.06
2018-08-11T23:44:19.522Z,48.27
2018-08-11T23:46:48.593Z,48.24
2018-08-11T23:49:16.534Z,48.11
2018-08-11T23:51:45.578Z,47.94
2018-08-11T23:54:13.191Z,48.17
2018-08-11T23:56:42.282Z,48.64
2018-08-11T23:59:10.325Z,48.37
